• Join FlightAware (Why Join?)
  • Login
  • US Flag 
10:18PM EDT


 

Airport Tracker/Info


-or-


 

Live Flight TrackerFlight Track Log ✈ N673DW ✈ 21-Apr-2013 ✈ KFHB - KVQQ

Flight Track Log - Related Links

Times and Time Zones

All times are in EDT time to prevent confusion due to time zone crossing. See the N673DW flight status page for this flight to view local times or setup timezone preferences in your user account.

Time Position Orientation Groundspeed Altitude Reporting Facility
EDT Latitude Longitude Course Direction KTS MPH feet Rate Location/Type
05:17PM 30.6264 -81.4925 197° South 125 144 1,100  Level Jacksonville Center
05:18PM 30.6056 -81.5000 197° South 142 163 1,200 240 Climbing Jacksonville Center
05:19PM 30.5781 -81.4833 152° Southeast 103 119 1,500 360 Climbing Jacksonville Center
05:19PM 30.5511 -81.4861 185° South 108 124 2,000 540 Climbing Jacksonville Center
05:20PM 30.5239 -81.4867 181° South 98 113 2,600 540 Climbing Jacksonville Center
05:21PM 30.4969 -81.4894 185° South 93 107 3,100 480 Climbing Jacksonville Center
05:23PM 30.4717 -81.4897 181° South 90 104 3,600 360 Climbing Jacksonville Center
05:24PM 30.4617 -81.5286 253° West 119 137 4,000 120 Climbing Jacksonville Center
05:25PM 30.4517 -81.5647 252° West 131 151 3,900  Descending Jacksonville Center
05:26PM 30.4375 -81.6083 249° West 134 154 4,000  Climbing Jacksonville Center
05:27PM 30.4253 -81.6494 251° West 129 148 4,000  Level Jacksonville Center
05:28PM 30.4111 -81.6931 249° West 131 151 4,000  Level Jacksonville Center
05:29PM 30.4033 -81.7342 258° West 132 152 4,000  Level Jacksonville Center
05:30PM 30.3911 -81.7681 247° West 134 154 4,000  Level Jacksonville Center
05:31PM 30.3789 -81.8114 252° West 131 151 4,000 -60 Level Jacksonville Center
05:32PM 30.3728 -81.8453 258° West 131 151 3,900 -60 Descending Jacksonville Center
05:33PM 30.3567 -81.8958 250° West 135 155 3,900  Level Jacksonville Center
05:34PM 30.3444 -81.9369 251° West 135 155 3,900  Level Jacksonville Center
05:35PM 30.3364 -81.9731 256° West 135 155 3,900 -120 Level Jacksonville Center
05:36PM 30.3242 -82.0142 251° West 128 147 3,700 -420 Descending Jacksonville Center
05:37PM 30.3097 -82.0553 248° West 147 169 3,100 -360 Descending Jacksonville Center
05:38PM 30.2975 -82.1033 254° West 155 178 3,000 -360 Descending Jacksonville Center
05:39PM 30.2725 -82.1133 199° South 123 142 2,500 -540 Descending Jacksonville Center
05:40PM 30.2392 -82.1136 180° South 131 151 2,000 -360 Descending Jacksonville Center
05:41PM 30.2203 -82.0897 132° Southeast 91 105 1,800 -120 Descending Jacksonville Center
05:42PM 30.2136 -82.0608 105° East 71 82 1,800  Level Jacksonville Center
05:43PM 30.2114 -82.0344 96° East 85 98 1,800  Level Jacksonville Center
05:44PM 30.2114 -82.0153 90° East 79 91 1,800  Level Jacksonville Center
05:45PM 30.2133 -81.9889 85° East 76 87 1,800 -180 Level Jacksonville Center
05:46PM 30.2108 -81.9600 96° East 80 92 1,400 -300 Descending Jacksonville Center
05:47PM 30.2108 -81.9358 90° East 87 100 1,200 -420 Descending Jacksonville Center
05:48PM 30.2128 -81.9142 84° East 85 98 700 -600 Descending Jacksonville Center
05:50PM 30.2188 -81.8772 108° East  Level Estimated